sensor_id;sensor_type;location;lat;lon;timestamp;temperature;humidity
20483;DHT22;10400;53.198;6.592;2024-02-28T00:01:33;3.80;99.90
20483;DHT22;10400;53.198;6.592;2024-02-28T00:03:58;3.90;99.90
20483;DHT22;10400;53.198;6.592;2024-02-28T00:06:24;3.90;99.90
20483;DHT22;10400;53.198;6.592;2024-02-28T00:08:50;3.90;99.90
20483;DHT22;10400;53.198;6.592;2024-02-28T00:11:18;3.90;99.90
20483;DHT22;10400;53.198;6.592;2024-02-28T00:13:44;3.90;99.90
20483;DHT22;10400;53.198;6.592;2024-02-28T00:16:09;3.90;99.90
20483;DHT22;10400;53.198;6.592;2024-02-28T00:18:35;3.80;99.90
20483;DHT22;10400;53.198;6.592;2024-02-28T00:21:01;3.80;99.90
20483;DHT22;10400;53.198;6.592;2024-02-28T00:23:27;3.90;99.90
20483;DHT22;10400;53.198;6.592;2024-02-28T00:25:52;3.90;99.90
20483;DHT22;10400;53.198;6.592;2024-02-28T00:28:18;3.90;99.90
20483;DHT22;10400;53.198;6.592;2024-02-28T00:30:44;3.90;99.90
20483;DHT22;10400;53.198;6.592;2024-02-28T00:33:10;3.80;99.90
20483;DHT22;10400;53.198;6.592;2024-02-28T00:35:35;3.90;99.90
20483;DHT22;10400;53.198;6.592;2024-02-28T00:38:01;3.80;99.90
20483;DHT22;10400;53.198;6.592;2024-02-28T00:40:27;3.70;99.90
20483;DHT22;10400;53.198;6.592;2024-02-28T00:42:57;3.80;99.90
20483;DHT22;10400;53.198;6.592;2024-02-28T00:45:23;3.80;99.90
20483;DHT22;10400;53.198;6.592;2024-02-28T00:47:49;3.80;99.90
20483;DHT22;10400;53.198;6.592;2024-02-28T00:50:15;3.80;99.90
20483;DHT22;10400;53.198;6.592;2024-02-28T00:52:40;3.80;99.90
20483;DHT22;10400;53.198;6.592;2024-02-28T00:55:06;3.80;99.90
20483;DHT22;10400;53.198;6.592;2024-02-28T00:57:32;3.70;99.90
20483;DHT22;10400;53.198;6.592;2024-02-28T00:59:58;3.80;99.90
20483;DHT22;10400;53.198;6.592;2024-02-28T01:02:24;3.90;99.90
20483;DHT22;10400;53.198;6.592;2024-02-28T01:04:50;3.90;99.90
20483;DHT22;10400;53.198;6.592;2024-02-28T01:07:15;3.90;99.90
20483;DHT22;10400;53.198;6.592;2024-02-28T01:09:41;3.90;99.90
20483;DHT22;10400;53.198;6.592;2024-02-28T01:12:07;3.80;99.90
20483;DHT22;10400;53.198;6.592;2024-02-28T01:14:33;3.80;99.90
20483;DHT22;10400;53.198;6.592;2024-02-28T01:16:59;3.80;99.90
20483;DHT22;10400;53.198;6.592;2024-02-28T01:19:24;3.80;99.90
20483;DHT22;10400;53.198;6.592;2024-02-28T01:21:50;3.70;99.90
20483;DHT22;10400;53.198;6.592;2024-02-28T01:24:16;3.70;99.90
20483;DHT22;10400;53.198;6.592;2024-02-28T01:26:41;3.70;99.90
20483;DHT22;10400;53.198;6.592;2024-02-28T01:29:07;3.70;99.90
20483;DHT22;10400;53.198;6.592;2024-02-28T01:31:32;3.70;99.90
20483;DHT22;10400;53.198;6.592;2024-02-28T01:33:58;3.70;99.90
20483;DHT22;10400;53.198;6.592;2024-02-28T01:36:24;3.70;99.90
20483;DHT22;10400;53.198;6.592;2024-02-28T01:38:50;3.70;99.90
20483;DHT22;10400;53.198;6.592;2024-02-28T01:41:15;3.80;99.90
20483;DHT22;10400;53.198;6.592;2024-02-28T01:43:41;3.80;99.90
20483;DHT22;10400;53.198;6.592;2024-02-28T01:46:37;3.70;99.90
20483;DHT22;10400;53.198;6.592;2024-02-28T01:49:01;3.80;99.90
20483;DHT22;10400;53.198;6.592;2024-02-28T01:51:27;3.80;99.90
20483;DHT22;10400;53.198;6.592;2024-02-28T01:53:54;3.70;99.90
20483;DHT22;10400;53.198;6.592;2024-02-28T01:56:20;3.80;99.90
20483;DHT22;10400;53.198;6.592;2024-02-28T01:58:49;3.80;99.90
20483;DHT22;10400;53.198;6.592;2024-02-28T02:01:16;3.80;99.90
20483;DHT22;10400;53.198;6.592;2024-02-28T02:03:45;3.70;99.90
20483;DHT22;10400;53.198;6.592;2024-02-28T02:06:11;3.80;99.90
20483;DHT22;10400;53.198;6.592;2024-02-28T02:08:37;3.80;99.90
20483;DHT22;10400;53.198;6.592;2024-02-28T02:11:04;3.80;99.90
20483;DHT22;10400;53.198;6.592;2024-02-28T02:13:30;3.80;99.90
20483;DHT22;10400;53.198;6.592;2024-02-28T02:15:55;3.90;99.90
20483;DHT22;10400;53.198;6.592;2024-02-28T02:18:21;3.80;99.90
20483;DHT22;10400;53.198;6.592;2024-02-28T02:20:58;3.80;99.90
20483;DHT22;10400;53.198;6.592;2024-02-28T02:23:24;3.90;99.90
20483;DHT22;10400;53.198;6.592;2024-02-28T02:25:49;3.80;99.90
20483;DHT22;10400;53.198;6.592;2024-02-28T02:28:15;3.80;99.90
20483;DHT22;10400;53.198;6.592;2024-02-28T02:30:41;3.80;99.90
20483;DHT22;10400;53.198;6.592;2024-02-28T02:33:08;3.70;99.90
20483;DHT22;10400;53.198;6.592;2024-02-28T02:35:34;3.70;99.90
20483;DHT22;10400;53.198;6.592;2024-02-28T02:38:00;3.70;99.90
20483;DHT22;10400;53.198;6.592;2024-02-28T02:40:25;3.70;99.90
20483;DHT22;10400;53.198;6.592;2024-02-28T02:42:51;3.70;99.90
20483;DHT22;10400;53.198;6.592;2024-02-28T02:45:17;3.70;99.90
20483;DHT22;10400;53.198;6.592;2024-02-28T02:47:42;3.70;99.90
20483;DHT22;10400;53.198;6.592;2024-02-28T02:50:11;3.70;99.90
20483;DHT22;10400;53.198;6.592;2024-02-28T02:52:37;3.70;99.90
20483;DHT22;10400;53.198;6.592;2024-02-28T02:55:03;3.70;99.90
20483;DHT22;10400;53.198;6.592;2024-02-28T02:57:29;3.80;99.90
20483;DHT22;10400;53.198;6.592;2024-02-28T02:59:57;3.70;99.90
20483;DHT22;10400;53.198;6.592;2024-02-28T03:02:23;3.70;99.90
20483;DHT22;10400;53.198;6.592;2024-02-28T03:04:49;3.80;99.90
20483;DHT22;10400;53.198;6.592;2024-02-28T03:07:14;3.80;99.90
20483;DHT22;10400;53.198;6.592;2024-02-28T03:09:40;3.70;99.90
20483;DHT22;10400;53.198;6.592;2024-02-28T03:12:06;3.80;99.90
20483;DHT22;10400;53.198;6.592;2024-02-28T03:14:32;3.80;99.90
20483;DHT22;10400;53.198;6.592;2024-02-28T03:16:58;3.80;99.90
20483;DHT22;10400;53.198;6.592;2024-02-28T03:19:23;3.80;99.90
20483;DHT22;10400;53.198;6.592;2024-02-28T03:21:49;3.90;99.90
20483;DHT22;10400;53.198;6.592;2024-02-28T03:24:14;3.90;99.90
20483;DHT22;10400;53.198;6.592;2024-02-28T03:26:40;3.80;99.90
20483;DHT22;10400;53.198;6.592;2024-02-28T03:29:06;3.80;99.90
20483;DHT22;10400;53.198;6.592;2024-02-28T03:31:32;3.80;99.90
20483;DHT22;10400;53.198;6.592;2024-02-28T03:33:57;3.80;99.90
20483;DHT22;10400;53.198;6.592;2024-02-28T03:36:23;3.80;99.90
20483;DHT22;10400;53.198;6.592;2024-02-28T03:38:48;3.90;99.90
20483;DHT22;10400;53.198;6.592;2024-02-28T03:41:14;3.90;99.90
20483;DHT22;10400;53.198;6.592;2024-02-28T03:43:40;3.90;99.90
20483;DHT22;10400;53.198;6.592;2024-02-28T03:46:05;3.90;99.90
20483;DHT22;10400;53.198;6.592;2024-02-28T03:48:31;3.90;99.90
20483;DHT22;10400;53.198;6.592;2024-02-28T03:50:57;3.90;99.90
20483;DHT22;10400;53.198;6.592;2024-02-28T03:53:22;4.00;99.90
20483;DHT22;10400;53.198;6.592;2024-02-28T03:55:50;3.90;99.90
20483;DHT22;10400;53.198;6.592;2024-02-28T03:58:15;4.00;99.90
20483;DHT22;10400;53.198;6.592;2024-02-28T04:00:41;4.00;99.90
20483;DHT22;10400;53.198;6.592;2024-02-28T04:03:09;4.00;99.90
20483;DHT22;10400;53.198;6.592;2024-02-28T04:05:35;4.00;99.90
20483;DHT22;10400;53.198;6.592;2024-02-28T04:08:01;4.10;99.90
20483;DHT22;10400;53.198;6.592;2024-02-28T04:10:26;4.10;99.90
20483;DHT22;10400;53.198;6.592;2024-02-28T04:12:52;4.00;99.90
20483;DHT22;10400;53.198;6.592;2024-02-28T04:15:18;4.00;99.90
20483;DHT22;10400;53.198;6.592;2024-02-28T04:17:43;4.00;99.90
20483;DHT22;10400;53.198;6.592;2024-02-28T04:20:13;4.00;99.90
20483;DHT22;10400;53.198;6.592;2024-02-28T04:22:39;4.10;99.90
20483;DHT22;10400;53.198;6.592;2024-02-28T04:25:05;4.10;99.90
20483;DHT22;10400;53.198;6.592;2024-02-28T04:27:32;4.10;99.90
20483;DHT22;10400;53.198;6.592;2024-02-28T04:29:58;4.10;99.90
20483;DHT22;10400;53.198;6.592;2024-02-28T04:32:23;4.10;99.90
20483;DHT22;10400;53.198;6.592;2024-02-28T04:34:49;4.10;99.90
20483;DHT22;10400;53.198;6.592;2024-02-28T04:37:15;4.10;99.90
20483;DHT22;10400;53.198;6.592;2024-02-28T04:39:40;4.20;99.90
20483;DHT22;10400;53.198;6.592;2024-02-28T04:42:06;4.20;99.90
20483;DHT22;10400;53.198;6.592;2024-02-28T04:44:33;4.20;99.90
20483;DHT22;10400;53.198;6.592;2024-02-28T04:46:58;4.30;99.90
20483;DHT22;10400;53.198;6.592;2024-02-28T04:49:24;4.20;99.90
20483;DHT22;10400;53.198;6.592;2024-02-28T04:51:50;4.30;99.90
20483;DHT22;10400;53.198;6.592;2024-02-28T04:54:16;4.30;99.90
20483;DHT22;10400;53.198;6.592;2024-02-28T04:56:42;4.30;99.90
20483;DHT22;10400;53.198;6.592;2024-02-28T04:59:09;4.30;99.90
20483;DHT22;10400;53.198;6.592;2024-02-28T05:01:36;4.40;99.90
20483;DHT22;10400;53.198;6.592;2024-02-28T05:04:05;4.40;99.90
20483;DHT22;10400;53.198;6.592;2024-02-28T05:06:31;4.50;99.90
20483;DHT22;10400;53.198;6.592;2024-02-28T05:08:57;4.50;99.90
20483;DHT22;10400;53.198;6.592;2024-02-28T05:11:22;4.40;99.90
20483;DHT22;10400;53.198;6.592;2024-02-28T05:13:48;4.40;99.90
20483;DHT22;10400;53.198;6.592;2024-02-28T05:16:15;4.40;99.90
20483;DHT22;10400;53.198;6.592;2024-02-28T05:18:41;4.50;99.90
20483;DHT22;10400;53.198;6.592;2024-02-28T05:21:07;4.50;99.90
20483;DHT22;10400;53.198;6.592;2024-02-28T05:23:33;4.40;99.90
20483;DHT22;10400;53.198;6.592;2024-02-28T05:25:59;4.40;99.90
20483;DHT22;10400;53.198;6.592;2024-02-28T05:28:29;4.50;99.90
20483;DHT22;10400;53.198;6.592;2024-02-28T05:30:55;4.50;99.90
20483;DHT22;10400;53.198;6.592;2024-02-28T05:33:21;4.50;99.90
20483;DHT22;10400;53.198;6.592;2024-02-28T05:35:47;4.50;99.90
20483;DHT22;10400;53.198;6.592;2024-02-28T05:38:13;4.50;99.90
20483;DHT22;10400;53.198;6.592;2024-02-28T05:40:38;4.50;99.90
20483;DHT22;10400;53.198;6.592;2024-02-28T05:43:06;4.50;99.90
20483;DHT22;10400;53.198;6.592;2024-02-28T05:45:31;4.40;99.90
20483;DHT22;10400;53.198;6.592;2024-02-28T05:47:57;4.50;99.90
20483;DHT22;10400;53.198;6.592;2024-02-28T05:50:23;4.50;99.90
20483;DHT22;10400;53.198;6.592;2024-02-28T05:52:48;4.50;99.90
20483;DHT22;10400;53.198;6.592;2024-02-28T05:55:14;4.40;99.90
20483;DHT22;10400;53.198;6.592;2024-02-28T05:57:40;4.40;99.90
20483;DHT22;10400;53.198;6.592;2024-02-28T06:00:06;4.50;99.90
20483;DHT22;10400;53.198;6.592;2024-02-28T06:02:36;4.50;99.90
20483;DHT22;10400;53.198;6.592;2024-02-28T06:05:03;4.60;99.90
20483;DHT22;10400;53.198;6.592;2024-02-28T06:07:28;4.50;99.90
20483;DHT22;10400;53.198;6.592;2024-02-28T06:09:54;4.60;99.90
20483;DHT22;10400;53.198;6.592;2024-02-28T06:12:20;4.60;99.90
20483;DHT22;10400;53.198;6.592;2024-02-28T06:14:45;4.50;99.90
20483;DHT22;10400;53.198;6.592;2024-02-28T06:17:11;4.60;99.90
20483;DHT22;10400;53.198;6.592;2024-02-28T06:19:37;4.60;99.90
20483;DHT22;10400;53.198;6.592;2024-02-28T06:22:02;4.60;99.90
20483;DHT22;10400;53.198;6.592;2024-02-28T06:24:28;4.60;99.90
20483;DHT22;10400;53.198;6.592;2024-02-28T06:26:54;4.50;99.90
20483;DHT22;10400;53.198;6.592;2024-02-28T06:29:19;4.60;99.90
20483;DHT22;10400;53.198;6.592;2024-02-28T06:31:53;4.60;99.90
20483;DHT22;10400;53.198;6.592;2024-02-28T06:34:20;4.60;99.90
20483;DHT22;10400;53.198;6.592;2024-02-28T06:36:47;4.60;99.90
20483;DHT22;10400;53.198;6.592;2024-02-28T06:39:13;4.70;99.90
20483;DHT22;10400;53.198;6.592;2024-02-28T06:41:39;4.70;99.90
20483;DHT22;10400;53.198;6.592;2024-02-28T06:44:04;4.70;99.90
20483;DHT22;10400;53.198;6.592;2024-02-28T06:46:30;4.60;99.90
20483;DHT22;10400;53.198;6.592;2024-02-28T06:48:56;4.70;99.90
20483;DHT22;10400;53.198;6.592;2024-02-28T06:51:21;4.80;99.90
20483;DHT22;10400;53.198;6.592;2024-02-28T06:53:47;4.70;99.90
20483;DHT22;10400;53.198;6.592;2024-02-28T06:56:13;4.80;99.90
20483;DHT22;10400;53.198;6.592;2024-02-28T06:58:38;4.70;99.90
20483;DHT22;10400;53.198;6.592;2024-02-28T07:01:04;4.70;99.90
20483;DHT22;10400;53.198;6.592;2024-02-28T07:03:30;4.80;99.90
20483;DHT22;10400;53.198;6.592;2024-02-28T07:05:55;4.80;99.90
20483;DHT22;10400;53.198;6.592;2024-02-28T07:08:21;4.80;99.90
20483;DHT22;10400;53.198;6.592;2024-02-28T07:10:47;4.80;99.90
20483;DHT22;10400;53.198;6.592;2024-02-28T07:13:15;4.80;99.90
20483;DHT22;10400;53.198;6.592;2024-02-28T07:15:40;4.80;99.90
20483;DHT22;10400;53.198;6.592;2024-02-28T07:18:07;4.90;99.90
20483;DHT22;10400;53.198;6.592;2024-02-28T07:20:33;4.90;99.90
20483;DHT22;10400;53.198;6.592;2024-02-28T07:22:59;4.90;99.90
20483;DHT22;10400;53.198;6.592;2024-02-28T07:25:25;4.90;99.90
20483;DHT22;10400;53.198;6.592;2024-02-28T07:27:51;4.90;99.90
20483;DHT22;10400;53.198;6.592;2024-02-28T07:30:17;4.90;99.90
20483;DHT22;10400;53.198;6.592;2024-02-28T07:32:42;4.90;99.90
20483;DHT22;10400;53.198;6.592;2024-02-28T07:35:08;4.90;99.90
20483;DHT22;10400;53.198;6.592;2024-02-28T07:37:34;5.00;99.90
20483;DHT22;10400;53.198;6.592;2024-02-28T07:39:59;4.90;99.90
20483;DHT22;10400;53.198;6.592;2024-02-28T07:42:25;5.00;99.90
20483;DHT22;10400;53.198;6.592;2024-02-28T07:44:51;5.10;99.90
20483;DHT22;10400;53.198;6.592;2024-02-28T07:47:22;5.10;99.90
20483;DHT22;10400;53.198;6.592;2024-02-28T07:49:48;5.10;99.90
20483;DHT22;10400;53.198;6.592;2024-02-28T07:52:13;5.20;99.90
20483;DHT22;10400;53.198;6.592;2024-02-28T07:54:41;5.20;99.90
20483;DHT22;10400;53.198;6.592;2024-02-28T07:57:08;5.30;99.90
20483;DHT22;10400;53.198;6.592;2024-02-28T07:59:39;5.40;99.90
20483;DHT22;10400;53.198;6.592;2024-02-28T08:02:05;5.40;99.90
20483;DHT22;10400;53.198;6.592;2024-02-28T08:04:31;5.40;99.90
20483;DHT22;10400;53.198;6.592;2024-02-28T08:06:57;5.50;99.90
20483;DHT22;10400;53.198;6.592;2024-02-28T08:09:22;5.50;99.90
20483;DHT22;10400;53.198;6.592;2024-02-28T08:11:48;5.50;99.90
20483;DHT22;10400;53.198;6.592;2024-02-28T08:14:14;5.60;99.90
20483;DHT22;10400;53.198;6.592;2024-02-28T08:16:39;5.70;99.90
20483;DHT22;10400;53.198;6.592;2024-02-28T08:19:05;5.60;99.90
20483;DHT22;10400;53.198;6.592;2024-02-28T08:21:31;5.60;99.90
20483;DHT22;10400;53.198;6.592;2024-02-28T08:23:56;5.70;99.90
20483;DHT22;10400;53.198;6.592;2024-02-28T08:26:23;5.80;99.90
20483;DHT22;10400;53.198;6.592;2024-02-28T08:28:49;5.80;99.90
20483;DHT22;10400;53.198;6.592;2024-02-28T08:31:16;5.90;99.90
20483;DHT22;10400;53.198;6.592;2024-02-28T08:33:41;5.90;99.90
20483;DHT22;10400;53.198;6.592;2024-02-28T08:36:07;5.90;99.90
20483;DHT22;10400;53.198;6.592;2024-02-28T08:38:33;6.00;99.90
20483;DHT22;10400;53.198;6.592;2024-02-28T08:41:00;6.10;99.90
20483;DHT22;10400;53.198;6.592;2024-02-28T08:43:25;6.20;99.90
20483;DHT22;10400;53.198;6.592;2024-02-28T08:45:51;6.10;99.90
20483;DHT22;10400;53.198;6.592;2024-02-28T08:48:17;6.10;99.90
20483;DHT22;10400;53.198;6.592;2024-02-28T08:50:42;6.20;99.90
20483;DHT22;10400;53.198;6.592;2024-02-28T08:53:08;6.20;99.90
20483;DHT22;10400;53.198;6.592;2024-02-28T08:55:33;6.20;99.90
20483;DHT22;10400;53.198;6.592;2024-02-28T08:57:59;6.30;99.90
20483;DHT22;10400;53.198;6.592;2024-02-28T09:00:25;6.30;99.90
20483;DHT22;10400;53.198;6.592;2024-02-28T09:02:51;6.30;99.90
20483;DHT22;10400;53.198;6.592;2024-02-28T09:05:16;6.40;99.90
20483;DHT22;10400;53.198;6.592;2024-02-28T09:07:42;6.40;99.90
20483;DHT22;10400;53.198;6.592;2024-02-28T09:10:08;6.40;99.90
20483;DHT22;10400;53.198;6.592;2024-02-28T09:12:34;6.40;99.90
20483;DHT22;10400;53.198;6.592;2024-02-28T09:14:59;6.50;99.90
20483;DHT22;10400;53.198;6.592;2024-02-28T09:17:25;6.60;99.90
20483;DHT22;10400;53.198;6.592;2024-02-28T09:19:53;6.70;99.90
20483;DHT22;10400;53.198;6.592;2024-02-28T09:22:19;6.70;99.90
20483;DHT22;10400;53.198;6.592;2024-02-28T09:24:47;6.70;99.90
20483;DHT22;10400;53.198;6.592;2024-02-28T09:27:13;6.70;99.90
20483;DHT22;10400;53.198;6.592;2024-02-28T09:29:39;6.80;99.90
20483;DHT22;10400;53.198;6.592;2024-02-28T09:32:05;6.90;99.90
20483;DHT22;10400;53.198;6.592;2024-02-28T09:34:30;6.80;99.90
20483;DHT22;10400;53.198;6.592;2024-02-28T09:36:56;6.80;99.90
20483;DHT22;10400;53.198;6.592;2024-02-28T09:39:22;6.90;99.90
20483;DHT22;10400;53.198;6.592;2024-02-28T09:41:48;6.90;99.90
20483;DHT22;10400;53.198;6.592;2024-02-28T09:44:16;6.90;99.90
20483;DHT22;10400;53.198;6.592;2024-02-28T09:46:42;6.80;99.90
20483;DHT22;10400;53.198;6.592;2024-02-28T09:49:09;6.80;99.90
20483;DHT22;10400;53.198;6.592;2024-02-28T09:51:36;6.90;99.90
20483;DHT22;10400;53.198;6.592;2024-02-28T09:54:05;7.00;99.90
20483;DHT22;10400;53.198;6.592;2024-02-28T09:56:31;7.00;99.90
20483;DHT22;10400;53.198;6.592;2024-02-28T09:58:57;7.00;99.90
20483;DHT22;10400;53.198;6.592;2024-02-28T10:01:25;7.00;99.90
20483;DHT22;10400;53.198;6.592;2024-02-28T10:03:52;7.10;99.90
20483;DHT22;10400;53.198;6.592;2024-02-28T10:06:19;7.10;99.90
20483;DHT22;10400;53.198;6.592;2024-02-28T10:08:45;7.20;99.90
20483;DHT22;10400;53.198;6.592;2024-02-28T10:11:23;7.20;99.90
20483;DHT22;10400;53.198;6.592;2024-02-28T10:13:49;7.20;99.90
20483;DHT22;10400;53.198;6.592;2024-02-28T10:16:16;7.40;99.90
20483;DHT22;10400;53.198;6.592;2024-02-28T10:18:45;7.50;99.90
20483;DHT22;10400;53.198;6.592;2024-02-28T10:21:11;7.50;99.90
20483;DHT22;10400;53.198;6.592;2024-02-28T10:23:43;7.60;99.90
20483;DHT22;10400;53.198;6.592;2024-02-28T10:26:10;7.60;99.90
20483;DHT22;10400;53.198;6.592;2024-02-28T10:28:40;7.50;99.90
20483;DHT22;10400;53.198;6.592;2024-02-28T10:31:06;7.50;99.90
20483;DHT22;10400;53.198;6.592;2024-02-28T10:33:35;7.50;99.90
20483;DHT22;10400;53.198;6.592;2024-02-28T10:36:05;7.50;99.90
20483;DHT22;10400;53.198;6.592;2024-02-28T10:38:31;7.50;99.90
20483;DHT22;10400;53.198;6.592;2024-02-28T10:41:02;7.50;99.90
20483;DHT22;10400;53.198;6.592;2024-02-28T10:43:29;7.50;99.90
20483;DHT22;10400;53.198;6.592;2024-02-28T10:45:57;7.60;99.90
20483;DHT22;10400;53.198;6.592;2024-02-28T10:48:25;7.70;99.90
20483;DHT22;10400;53.198;6.592;2024-02-28T10:50:51;7.50;99.90
20483;DHT22;10400;53.198;6.592;2024-02-28T10:53:21;7.50;99.90
20483;DHT22;10400;53.198;6.592;2024-02-28T10:55:48;7.60;99.90
20483;DHT22;10400;53.198;6.592;2024-02-28T10:58:14;7.50;99.90
20483;DHT22;10400;53.198;6.592;2024-02-28T11:00:42;7.50;99.90
20483;DHT22;10400;53.198;6.592;2024-02-28T11:03:10;7.60;99.90
20483;DHT22;10400;53.198;6.592;2024-02-28T11:05:43;7.60;99.90
20483;DHT22;10400;53.198;6.592;2024-02-28T11:08:22;7.70;99.90
20483;DHT22;10400;53.198;6.592;2024-02-28T11:10:57;7.70;99.90
20483;DHT22;10400;53.198;6.592;2024-02-28T11:13:27;7.70;99.90
20483;DHT22;10400;53.198;6.592;2024-02-28T11:15:54;7.80;99.90
20483;DHT22;10400;53.198;6.592;2024-02-28T11:18:20;7.80;99.90
20483;DHT22;10400;53.198;6.592;2024-02-28T11:20:46;7.90;99.90
20483;DHT22;10400;53.198;6.592;2024-02-28T11:23:14;8.00;99.90
20483;DHT22;10400;53.198;6.592;2024-02-28T11:25:43;8.10;99.90
20483;DHT22;10400;53.198;6.592;2024-02-28T11:28:09;8.10;99.90
20483;DHT22;10400;53.198;6.592;2024-02-28T11:30:35;8.20;99.90
20483;DHT22;10400;53.198;6.592;2024-02-28T11:33:01;8.20;99.90
20483;DHT22;10400;53.198;6.592;2024-02-28T11:35:28;8.40;99.90
20483;DHT22;10400;53.198;6.592;2024-02-28T11:37:56;8.50;99.90
20483;DHT22;10400;53.198;6.592;2024-02-28T11:40:23;8.50;99.90
20483;DHT22;10400;53.198;6.592;2024-02-28T11:42:53;8.60;99.90
20483;DHT22;10400;53.198;6.592;2024-02-28T11:45:19;8.60;99.90
20483;DHT22;10400;53.198;6.592;2024-02-28T11:47:45;8.60;99.90
20483;DHT22;10400;53.198;6.592;2024-02-28T11:50:11;8.70;99.90
20483;DHT22;10400;53.198;6.592;2024-02-28T11:52:37;8.60;99.90
20483;DHT22;10400;53.198;6.592;2024-02-28T11:55:04;8.60;99.90
20483;DHT22;10400;53.198;6.592;2024-02-28T11:57:29;8.70;99.90
20483;DHT22;10400;53.198;6.592;2024-02-28T12:00:02;8.70;99.90
20483;DHT22;10400;53.198;6.592;2024-02-28T12:02:29;8.60;99.90
20483;DHT22;10400;53.198;6.592;2024-02-28T12:05:00;8.60;99.90
20483;DHT22;10400;53.198;6.592;2024-02-28T12:07:26;8.50;99.90
20483;DHT22;10400;53.198;6.592;2024-02-28T12:09:54;8.60;99.90
20483;DHT22;10400;53.198;6.592;2024-02-28T12:12:21;8.60;99.90
20483;DHT22;10400;53.198;6.592;2024-02-28T12:14:46;8.60;99.90
20483;DHT22;10400;53.198;6.592;2024-02-28T12:17:17;8.60;99.90
20483;DHT22;10400;53.198;6.592;2024-02-28T12:19:43;8.60;99.90
20483;DHT22;10400;53.198;6.592;2024-02-28T12:22:09;8.60;99.90
20483;DHT22;10400;53.198;6.592;2024-02-28T12:24:35;8.60;99.90
20483;DHT22;10400;53.198;6.592;2024-02-28T12:27:01;8.60;99.90
20483;DHT22;10400;53.198;6.592;2024-02-28T12:29:27;8.60;99.90
20483;DHT22;10400;53.198;6.592;2024-02-28T12:31:53;8.70;99.90
20483;DHT22;10400;53.198;6.592;2024-02-28T12:34:18;8.70;99.90
20483;DHT22;10400;53.198;6.592;2024-02-28T12:36:44;8.70;99.90
20483;DHT22;10400;53.198;6.592;2024-02-28T12:39:10;8.70;99.90
20483;DHT22;10400;53.198;6.592;2024-02-28T12:41:39;8.70;99.90
20483;DHT22;10400;53.198;6.592;2024-02-28T12:44:07;8.70;99.90
20483;DHT22;10400;53.198;6.592;2024-02-28T12:46:34;8.80;99.90
20483;DHT22;10400;53.198;6.592;2024-02-28T12:49:00;8.60;99.90
20483;DHT22;10400;53.198;6.592;2024-02-28T12:51:43;8.60;99.90
20483;DHT22;10400;53.198;6.592;2024-02-28T12:54:10;8.70;99.90
20483;DHT22;10400;53.198;6.592;2024-02-28T12:56:36;8.70;99.90
20483;DHT22;10400;53.198;6.592;2024-02-28T12:59:03;8.70;99.90
20483;DHT22;10400;53.198;6.592;2024-02-28T13:01:29;8.70;99.90
20483;DHT22;10400;53.198;6.592;2024-02-28T13:03:55;8.70;99.90
20483;DHT22;10400;53.198;6.592;2024-02-28T13:06:21;8.80;99.90
20483;DHT22;10400;53.198;6.592;2024-02-28T13:08:47;8.60;99.90
20483;DHT22;10400;53.198;6.592;2024-02-28T13:11:21;8.60;99.90
20483;DHT22;10400;53.198;6.592;2024-02-28T13:13:48;8.50;99.90
20483;DHT22;10400;53.198;6.592;2024-02-28T13:16:15;8.60;99.90
20483;DHT22;10400;53.198;6.592;2024-02-28T13:18:41;8.60;99.90
20483;DHT22;10400;53.198;6.592;2024-02-28T13:21:07;8.60;99.90
20483;DHT22;10400;53.198;6.592;2024-02-28T13:23:33;8.60;99.90
20483;DHT22;10400;53.198;6.592;2024-02-28T13:26:00;8.60;99.90
20483;DHT22;10400;53.198;6.592;2024-02-28T13:28:26;8.60;99.90
20483;DHT22;10400;53.198;6.592;2024-02-28T13:31:02;8.60;99.90
20483;DHT22;10400;53.198;6.592;2024-02-28T13:33:28;8.70;99.90
20483;DHT22;10400;53.198;6.592;2024-02-28T13:35:54;8.70;99.90
20483;DHT22;10400;53.198;6.592;2024-02-28T13:38:20;8.80;99.90
20483;DHT22;10400;53.198;6.592;2024-02-28T13:40:49;8.80;99.90
20483;DHT22;10400;53.198;6.592;2024-02-28T13:43:15;8.80;99.90
20483;DHT22;10400;53.198;6.592;2024-02-28T13:45:47;8.90;99.90
20483;DHT22;10400;53.198;6.592;2024-02-28T13:48:17;8.90;99.90
20483;DHT22;10400;53.198;6.592;2024-02-28T13:50:44;9.00;99.90
20483;DHT22;10400;53.198;6.592;2024-02-28T13:53:11;8.90;99.90
20483;DHT22;10400;53.198;6.592;2024-02-28T13:55:37;8.80;99.90
20483;DHT22;10400;53.198;6.592;2024-02-28T13:58:04;8.80;99.90
20483;DHT22;10400;53.198;6.592;2024-02-28T14:00:29;8.80;99.90
20483;DHT22;10400;53.198;6.592;2024-02-28T14:02:55;8.80;99.90
20483;DHT22;10400;53.198;6.592;2024-02-28T14:05:20;8.80;99.90
20483;DHT22;10400;53.198;6.592;2024-02-28T14:07:46;8.80;99.90
20483;DHT22;10400;53.198;6.592;2024-02-28T14:10:12;8.90;99.90
20483;DHT22;10400;53.198;6.592;2024-02-28T14:12:37;8.90;99.90
20483;DHT22;10400;53.198;6.592;2024-02-28T14:15:04;8.90;99.90
20483;DHT22;10400;53.198;6.592;2024-02-28T14:17:30;9.00;99.90
20483;DHT22;10400;53.198;6.592;2024-02-28T14:19:56;9.00;99.90
20483;DHT22;10400;53.198;6.592;2024-02-28T14:22:22;9.00;99.90
20483;DHT22;10400;53.198;6.592;2024-02-28T14:24:47;9.00;99.90
20483;DHT22;10400;53.198;6.592;2024-02-28T14:27:13;8.90;99.90
20483;DHT22;10400;53.198;6.592;2024-02-28T14:29:39;8.90;99.90
20483;DHT22;10400;53.198;6.592;2024-02-28T14:32:05;9.00;99.90
20483;DHT22;10400;53.198;6.592;2024-02-28T14:34:32;9.00;99.90
20483;DHT22;10400;53.198;6.592;2024-02-28T14:36:58;9.10;99.90
20483;DHT22;10400;53.198;6.592;2024-02-28T14:39:24;9.10;99.90
20483;DHT22;10400;53.198;6.592;2024-02-28T14:41:49;9.10;99.90
20483;DHT22;10400;53.198;6.592;2024-02-28T14:44:15;9.10;99.90
20483;DHT22;10400;53.198;6.592;2024-02-28T14:46:42;9.10;99.90
20483;DHT22;10400;53.198;6.592;2024-02-28T14:49:09;9.20;99.90
20483;DHT22;10400;53.198;6.592;2024-02-28T14:51:34;9.30;99.90
20483;DHT22;10400;53.198;6.592;2024-02-28T14:54:00;9.40;99.90
20483;DHT22;10400;53.198;6.592;2024-02-28T14:56:26;9.30;99.90
20483;DHT22;10400;53.198;6.592;2024-02-28T14:58:58;9.30;99.90
20483;DHT22;10400;53.198;6.592;2024-02-28T15:01:24;9.40;99.90
20483;DHT22;10400;53.198;6.592;2024-02-28T15:03:53;9.40;99.90
20483;DHT22;10400;53.198;6.592;2024-02-28T15:06:18;9.30;99.90
20483;DHT22;10400;53.198;6.592;2024-02-28T15:08:44;9.40;99.90
20483;DHT22;10400;53.198;6.592;2024-02-28T15:11:10;9.30;99.90
20483;DHT22;10400;53.198;6.592;2024-02-28T15:13:35;9.40;99.90
20483;DHT22;10400;53.198;6.592;2024-02-28T15:16:01;9.40;99.90
20483;DHT22;10400;53.198;6.592;2024-02-28T15:18:26;9.40;99.90
20483;DHT22;10400;53.198;6.592;2024-02-28T15:20:52;9.30;99.90
20483;DHT22;10400;53.198;6.592;2024-02-28T15:23:19;9.40;99.90
20483;DHT22;10400;53.198;6.592;2024-02-28T15:25:47;9.40;99.90
20483;DHT22;10400;53.198;6.592;2024-02-28T15:28:13;9.40;99.90
20483;DHT22;10400;53.198;6.592;2024-02-28T15:30:39;9.50;99.90
20483;DHT22;10400;53.198;6.592;2024-02-28T15:33:05;9.50;99.90
20483;DHT22;10400;53.198;6.592;2024-02-28T15:35:31;9.50;99.90
20483;DHT22;10400;53.198;6.592;2024-02-28T15:37:56;9.60;99.90
20483;DHT22;10400;53.198;6.592;2024-02-28T15:40:22;9.60;99.90